Flight Track Log - Related Links

Times and Time Zones

All times are in EST time to prevent confusion due to time zone crossing. See the GTX653 flight status page for this flight to view local times or setup timezone preferences in your user account.

Time Position Orientation Groundspeed Altitude Reporting Facility
EST Latitude Longitude Course Direction KTS MPH feet Rate Location/Type
Wed 12:32:31 AM 32.9333 -96.8000 121° Southeast 137 158 2,100  Level Dallas / Fort Worth TRACON
Wed 12:33:19 AM 32.9167 -96.7667 121° Southeast 129 148 2,500 667 Climbing Dallas / Fort Worth TRACON
Wed 12:34:19 AM 32.9000 -96.8000 239° Southwest 128 147 3,300 700 Climbing Dallas / Fort Worth TRACON
Wed 12:35:19 AM 32.8667 -96.8333 220° Southwest 131 151 3,900 650 Climbing Dallas / Fort Worth TRACON
Wed 12:36:19 AM 32.8500 -96.8667 239° Southwest 137 158 4,600 650 Climbing Dallas / Fort Worth TRACON
Wed 12:37:19 AM 32.8167 -96.8833 203° Southwest 135 155 5,200 571 Climbing Dallas / Fort Worth TRACON
Wed 12:38:25 AM 32.7667 -96.9000 196° South 140 161 5,800 381 Climbing Dallas / Fort Worth TRACON
Wed 12:39:25 AM 32.7333 -96.9000 180° South 153 176 6,000 105 Climbing Dallas / Fort Worth TRACON
Wed 12:40:19 AM 32.6833 -96.9167 196° South 163 188 6,000  Level Dallas / Fort Worth TRACON
Wed 12:41:19 AM 32.6500 -96.9333 203° Southwest 164 189 6,000  Level Dallas / Fort Worth TRACON
Wed 12:42:07 AM 32.6133 -96.9536 205° Southwest 166 191 6,000  Level Fort Worth Center
Wed 12:43:07 AM 32.5675 -96.9722 199° South 173 199 6,000  Level Fort Worth Center
Wed 12:44:08 AM 32.5217 -96.9856 194° South 171 197 6,000  Level Fort Worth Center
Wed 12:45:08 AM 32.4750 -97.0003 195° South 171 197 6,000  Level Fort Worth Center
Wed 12:46:09 AM 32.4292 -97.0161 196° South 171 197 6,000  Level Fort Worth Center
Wed 12:47:09 AM 32.3794 -97.0297 193° South 171 197 6,000  Level Fort Worth Center
Wed 12:48:10 AM 32.3336 -97.0431 194° South 170 196 6,000  Level Fort Worth Center
Wed 12:49:10 AM 32.2892 -97.0608 199° South 170 196 6,000  Level Fort Worth Center
Wed 12:50:11 AM 32.2428 -97.0722 192° South 170 196 6,000  Level Fort Worth Center
Wed 12:51:11 AM 32.1958 -97.0897 198° South 170 196 6,000  Level Fort Worth Center
Wed 12:52:11 AM 32.1533 -97.1011 193° South 170 196 6,000 50 Level Fort Worth Center
Wed 12:53:12 AM 32.1064 -97.1150 194° South 170 196 6,100  Climbing Fort Worth Center
Wed 12:54:12 AM 32.0603 -97.1281 193° South 171 197 6,000 -99 Descending Fort Worth Center
Wed 12:55:13 AM 32.0139 -97.1433 196° South 170 196 5,900  Descending Fort Worth Center
Wed 12:56:13 AM 31.9686 -97.1589 196° South 171 197 6,000 50 Climbing Fort Worth Center
Wed 12:57:13 AM 31.9228 -97.1731 195° South 171 197 6,000 50 Level Fort Worth Center
Wed 12:58:14 AM 31.8753 -97.1858 193° South 171 197 6,100 50 Climbing Fort Worth Center
Wed 12:59:14 AM 31.8281 -97.1978 192° South 171 197 6,100  Level Fort Worth Center
Wed 01:00:14 AM 31.7797 -97.2100 192° South 172 198 6,100  Level Fort Worth Center
Wed 01:01:15 AM 31.7317 -97.2242 194° South 173 199 6,100 -50 Level Fort Worth Center
Wed 01:02:15 AM 31.6844 -97.2372 193° South 173 199 6,000  Descending Fort Worth Center
Wed 01:03:16 AM 31.6369 -97.2508 194° South 173 199 6,100 62 Climbing Fort Worth Center
Wed 01:03:52 AM 31.6064 -97.2592 193° South 174 200 6,100  Level Fort Worth Center
Wed 01:03:58 AM 31.6025 -97.2622 214° Southwest 174 200 6,100  Level Fort Worth Center
Wed 01:04:16 AM 31.5889 -97.2636 185° South 173 199 6,100  Level Fort Worth Center
Wed 01:04:59 AM 31.5511 -97.2733 192° South 176 203 6,100  Level Fort Worth Center
Wed 01:05:16 AM 31.5406 -97.2753 189° South 174 200 6,100  Level Fort Worth Center
Wed 01:05:59 AM 31.5061 -97.2836 192° South 175 201 6,100  Level Fort Worth Center
Wed 01:06:17 AM 31.4925 -97.2872 193° South 174 200 6,100 -98 Level Fort Worth Center
Wed 01:07:00 AM 31.4569 -97.2967 193° South 175 201 6,000  Descending Fort Worth Center
Wed 01:07:17 AM 31.4442 -97.2994 191° South 174 200 6,100 100 Climbing Fort Worth Center
Wed 01:08:00 AM 31.4100 -97.3097 194° South 176 203 6,100  Level Fort Worth Center
Wed 01:08:17 AM 31.3967 -97.3128 191° South 174 200 6,100 -98 Level Fort Worth Center
Wed 01:09:01 AM 31.3611 -97.3228 194° South 175 201 6,000 -100 Descending Fort Worth Center
Wed 01:09:17 AM 31.3486 -97.3267 195° South 174 200 6,000 98 Level Fort Worth Center
Wed 01:10:02 AM 31.3144 -97.3381 196° South 176 203 6,100 98 Climbing Fort Worth Center
Wed 01:10:18 AM 31.3006 -97.3406 189° South 174 200 6,100  Level Fort Worth Center
Wed 01:11:02 AM 31.2633 -97.3517 194° South 177 204 6,100  Level Fort Worth Center
Wed 01:11:18 AM 31.2522 -97.3572 203° Southwest 177 204 6,100  Level Fort Worth Center
Wed 01:12:03 AM 31.2150 -97.3697 196° South 176 203 6,100  Level Fort Worth Center
Wed 01:12:18 AM 31.2044 -97.3717 189° South 177 204 6,100 -100 Level Fort Worth Center
Wed 01:13:03 AM 31.1700 -97.3797 191° South 175 201 6,000  Descending Fort Worth Center
Wed 01:13:19 AM 31.1569 -97.3839 195° South 176 203 6,100 98 Climbing Fort Worth Center
Wed 01:14:04 AM 31.1208 -97.3928 192° South 173 199 6,100 -100 Level Fort Worth Center
Wed 01:14:19 AM 31.1097 -97.3972 199° South 176 203 6,000  Descending Fort Worth Center
Wed 01:15:05 AM 31.0742 -97.4081 195° South 176 203 6,100 100 Climbing Fort Worth Center
Wed 01:15:19 AM 31.0617 -97.4111 192° South 176 203 6,100  Level Fort Worth Center
Wed 01:16:05 AM 31.0231 -97.4217 193° South 177 204 6,100 -98 Level Fort Worth Center
Wed 01:16:20 AM 31.0139 -97.4264 204° Southwest 176 203 6,000 -98 Descending Fort Worth Center
Wed 01:17:06 AM 30.9786 -97.4364 194° South 177 204 6,000  Level Fort Worth Center
Wed 01:17:20 AM 30.9664 -97.4411 198° South 176 203 6,000 81 Level Fort Worth Center
Wed 01:18:20 AM 30.9183 -97.4533 192° South 176 203 6,100 50 Climbing Fort Worth Center
Wed 01:19:20 AM 30.8703 -97.4658 193° South 176 203 6,100 -50 Level Fort Worth Center
Wed 01:20:21 AM 30.8225 -97.4786 193° South 176 203 6,000 -99 Descending Fort Worth Center
Wed 01:21:21 AM 30.7736 -97.4889 190° South 176 203 5,900 -451 Descending Fort Worth Center
Wed 01:22:34 AM 30.7150 -97.5031 192° South 181 208 5,000 -767 Descending Houston Center
Wed 01:23:34 AM 30.6631 -97.5169 193° South 187 215 4,200 -700 Descending Houston Center
Wed 01:24:34 AM 30.6125 -97.5264 189° South 187 215 3,600 -600 Descending Houston Center
Wed 01:25:34 AM 30.5639 -97.5356 189° South 182 209 3,000 -500 Descending Houston Center
Wed 01:26:34 AM 30.5181 -97.5467 192° South 173 199 2,600 -298 Descending Houston Center
Wed 01:27:35 AM 30.4742 -97.5539 188° South 164 189 2,400 -298 Descending Houston Center
Wed 01:28:35 AM 30.4347 -97.5756 205° Southwest 159 183 2,000 -700 Descending Houston Center
Wed 01:29:35 AM 30.4131 -97.5836 198° South 152 175 1,000 -500 Descending Houston Center
Wed 01:30:35 AM 30.3889 -97.5589 139° Southeast 146 168 1,000  Level Houston Center

Login

Don't have an account? Register now (free) for customized features, flight alerts, and more!